EZY52GN GVAC-EGCC
Flight info
| Callsign | EZY52GN |
|---|---|
| Flight time | N/A |
| Altitude | 35000 |
| Route | DIMKI1A DIMKI DCT IPERA N873 LIMAL DCT URQUI DCT GOMER DCT PITAB DCT BIMBO DCT ROLAR DCT TABAX DCT VEDEL DCT MIMBO DCT RIPEL DCT ADVAT/M074F350 T290 GELPO DCT JABEX/N0431F350 DCT BIBLA DCT GOTEM DCT BOFUM Q37 MALUD |
| Aircraft | A320/M-SDE2E3FGHIJ1RWXYZ/LB1 |
Departure
| Time | 2026-04-29 09:29 |
|---|---|
| Airport | Amílcar Cabral International Airport (GVAC) |
Arrival
| Time | N/A |
|---|---|
| Airport | Manchester Airport (EGCC) |
| Time | Latitude | Longitude | Altitude | Speed | Heading |
|---|---|---|---|---|---|
| 2026-04-29 08:38 | 16.73362 | -22.94508 | 151 ft | 0 kts | 90° |
| 2026-04-29 09:21 | 16.73362 | -22.94519 | 123 ft | 3 kts | 90° |
| 2026-04-29 09:21 | 16.73362 | -22.94540 | 150 ft | 3 kts | 90° |
| 2026-04-29 09:22 | 16.73361 | -22.94559 | 150 ft | 3 kts | 93° |
| 2026-04-29 09:22 | 16.73365 | -22.94578 | 150 ft | 3 kts | 125° |
| 2026-04-29 09:22 | 16.73379 | -22.94591 | 150 ft | 3 kts | 164° |
| 2026-04-29 09:22 | 16.73397 | -22.94594 | 150 ft | 2 kts | 179° |
| 2026-04-29 09:23 | 16.73403 | -22.94594 | 150 ft | 0 kts | 179° |
| 2026-04-29 09:25 | 16.73382 | -22.94594 | 150 ft | 8 kts | 179° |
| 2026-04-29 09:25 | 16.73296 | -22.94593 | 150 ft | 16 kts | 180° |
| 2026-04-29 09:25 | 16.73158 | -22.94593 | 150 ft | 18 kts | 179° |
| 2026-04-29 09:25 | 16.73068 | -22.94639 | 150 ft | 14 kts | 247° |
| 2026-04-29 09:26 | 16.72999 | -22.94693 | 150 ft | 13 kts | 185° |
| 2026-04-29 09:26 | 16.72915 | -22.94689 | 150 ft | 13 kts | 178° |
| 2026-04-29 09:26 | 16.72782 | -22.94686 | 150 ft | 23 kts | 180° |
| 2026-04-29 09:26 | 16.72627 | -22.94687 | 150 ft | 21 kts | 180° |
| 2026-04-29 09:27 | 16.72486 | -22.94686 | 150 ft | 19 kts | 179° |
| 2026-04-29 09:27 | 16.72403 | -22.94746 | 149 ft | 15 kts | 259° |
| 2026-04-29 09:27 | 16.72402 | -22.94846 | 149 ft | 13 kts | 271° |
| 2026-04-29 09:27 | 16.72451 | -22.94888 | 150 ft | 10 kts | 357° |
| 2026-04-29 09:28 | 16.72464 | -22.94889 | 150 ft | 0 kts | 358° |
| 2026-04-29 09:28 | 16.72474 | -22.94889 | 150 ft | 9 kts | 358° |
| 2026-04-29 09:28 | 16.72788 | -22.94888 | 150 ft | 79 kts | 360° |
| 2026-04-29 09:28 | 16.73534 | -22.94895 | 152 ft | 133 kts | 359° |
| 2026-04-29 09:29 | 16.74605 | -22.94913 | 296 ft | 162 kts | 1° |
| 2026-04-29 09:29 | 16.76776 | -22.94947 | 1594 ft | 161 kts | 0° |
| 2026-04-29 09:29 | 16.77973 | -22.94959 | 1829 ft | 182 kts | 359° |
| 2026-04-29 09:30 | 16.79317 | -22.94970 | 2017 ft | 205 kts | 0° |
| 2026-04-29 09:30 | 16.80830 | -22.94972 | 2255 ft | 230 kts | 0° |
| 2026-04-29 09:30 | 16.82503 | -22.94972 | 2701 ft | 247 kts | 0° |
| 2026-04-29 09:30 | 16.84251 | -22.94976 | 3398 ft | 255 kts | 359° |
| 2026-04-29 09:31 | 16.86044 | -22.94985 | 4102 ft | 261 kts | 358° |
| 2026-04-29 09:31 | 16.87890 | -22.94996 | 4750 ft | 269 kts | 356° |
| 2026-04-29 09:31 | 16.89785 | -22.95010 | 5359 ft | 276 kts | 356° |
| 2026-04-29 09:31 | 16.91725 | -22.94780 | 5988 ft | 287 kts | 11° |
| 2026-04-29 09:32 | 16.93601 | -22.93962 | 6609 ft | 299 kts | 28° |
| 2026-04-29 09:32 | 16.95343 | -22.92716 | 7211 ft | 305 kts | 31° |
| 2026-04-29 09:32 | 16.97098 | -22.91440 | 7838 ft | 309 kts | 31° |
| 2026-04-29 09:32 | 16.98880 | -22.90152 | 8471 ft | 314 kts | 31° |
| 2026-04-29 09:33 | 17.00683 | -22.88848 | 9097 ft | 318 kts | 31° |
| 2026-04-29 09:33 | 17.02518 | -22.87525 | 9736 ft | 322 kts | 31° |
| 2026-04-29 09:33 | 17.04380 | -22.86182 | 10336 ft | 327 kts | 32° |
| 2026-04-29 09:33 | 17.06314 | -22.84791 | 10489 ft | 349 kts | 32° |
| 2026-04-29 09:34 | 17.08376 | -22.83309 | 10661 ft | 368 kts | 32° |